sensor_id;sensor_type;location;lat;lon;timestamp;P1;durP1;ratioP1;P2;durP2;ratioP2
291;SDS011;23311;48.776;9.162;2023-04-28T00:00:02;7.67;;;6.03;;
291;SDS011;23311;48.776;9.162;2023-04-28T00:02:31;7.53;;;5.50;;
291;SDS011;23311;48.776;9.162;2023-04-28T00:05:00;5.43;;;5.13;;
291;SDS011;23311;48.776;9.162;2023-04-28T00:07:29;7.00;;;5.50;;
291;SDS011;23311;48.776;9.162;2023-04-28T00:09:57;6.53;;;6.10;;
291;SDS011;23311;48.776;9.162;2023-04-28T00:12:25;5.97;;;5.60;;
291;SDS011;23311;48.776;9.162;2023-04-28T00:14:54;7.77;;;6.17;;
291;SDS011;23311;48.776;9.162;2023-04-28T00:17:22;7.73;;;6.03;;
291;SDS011;23311;48.776;9.162;2023-04-28T00:19:50;5.80;;;5.50;;
291;SDS011;23311;48.776;9.162;2023-04-28T00:22:19;6.77;;;5.43;;
291;SDS011;23311;48.776;9.162;2023-04-28T00:24:47;8.73;;;6.57;;
291;SDS011;23311;48.776;9.162;2023-04-28T00:27:15;8.93;;;6.37;;
291;SDS011;23311;48.776;9.162;2023-04-28T00:29:43;8.30;;;5.90;;
291;SDS011;23311;48.776;9.162;2023-04-28T00:32:12;9.50;;;6.13;;
291;SDS011;23311;48.776;9.162;2023-04-28T00:34:40;6.13;;;5.63;;
291;SDS011;23311;48.776;9.162;2023-04-28T00:37:08;6.53;;;5.33;;
291;SDS011;23311;48.776;9.162;2023-04-28T00:39:36;7.57;;;5.30;;
291;SDS011;23311;48.776;9.162;2023-04-28T00:42:04;7.13;;;5.43;;
291;SDS011;23311;48.776;9.162;2023-04-28T00:44:32;7.33;;;6.27;;
291;SDS011;23311;48.776;9.162;2023-04-28T00:47:00;7.00;;;5.70;;
291;SDS011;23311;48.776;9.162;2023-04-28T00:49:30;6.07;;;4.80;;
291;SDS011;23311;48.776;9.162;2023-04-28T00:51:59;8.60;;;5.60;;
291;SDS011;23311;48.776;9.162;2023-04-28T00:54:31;5.27;;;5.00;;
291;SDS011;23311;48.776;9.162;2023-04-28T00:56:59;7.50;;;5.37;;
291;SDS011;23311;48.776;9.162;2023-04-28T00:59:28;5.77;;;5.43;;
291;SDS011;23311;48.776;9.162;2023-04-28T01:01:57;6.87;;;6.00;;
291;SDS011;23311;48.776;9.162;2023-04-28T01:04:27;7.80;;;5.80;;
291;SDS011;23311;48.776;9.162;2023-04-28T01:06:57;9.40;;;5.73;;
291;SDS011;23311;48.776;9.162;2023-04-28T01:09:27;6.77;;;5.93;;
291;SDS011;23311;48.776;9.162;2023-04-28T01:11:55;5.90;;;5.50;;
291;SDS011;23311;48.776;9.162;2023-04-28T01:14:23;6.87;;;5.77;;
291;SDS011;23311;48.776;9.162;2023-04-28T01:16:52;9.97;;;5.90;;
291;SDS011;23311;48.776;9.162;2023-04-28T01:19:20;8.30;;;5.17;;
291;SDS011;23311;48.776;9.162;2023-04-28T01:21:50;8.40;;;5.57;;
291;SDS011;23311;48.776;9.162;2023-04-28T01:24:20;5.67;;;4.90;;
291;SDS011;23311;48.776;9.162;2023-04-28T01:26:48;8.30;;;4.90;;
291;SDS011;23311;48.776;9.162;2023-04-28T01:29:16;7.80;;;5.43;;
291;SDS011;23311;48.776;9.162;2023-04-28T01:31:44;6.23;;;5.10;;
291;SDS011;23311;48.776;9.162;2023-04-28T01:34:12;7.60;;;4.93;;
291;SDS011;23311;48.776;9.162;2023-04-28T01:36:40;6.13;;;4.63;;
291;SDS011;23311;48.776;9.162;2023-04-28T01:39:08;6.10;;;5.10;;
291;SDS011;23311;48.776;9.162;2023-04-28T01:41:38;5.03;;;4.70;;
291;SDS011;23311;48.776;9.162;2023-04-28T01:44:06;6.13;;;5.20;;
291;SDS011;23311;48.776;9.162;2023-04-28T01:46:34;7.10;;;5.90;;
291;SDS011;23311;48.776;9.162;2023-04-28T01:49:02;5.73;;;5.10;;
291;SDS011;23311;48.776;9.162;2023-04-28T01:51:30;5.00;;;4.50;;
291;SDS011;23311;48.776;9.162;2023-04-28T01:53:58;7.03;;;5.53;;
291;SDS011;23311;48.776;9.162;2023-04-28T01:56:26;6.60;;;5.67;;
291;SDS011;23311;48.776;9.162;2023-04-28T01:58:55;6.30;;;4.77;;
291;SDS011;23311;48.776;9.162;2023-04-28T02:01:23;5.13;;;4.87;;
291;SDS011;23311;48.776;9.162;2023-04-28T02:03:52;6.57;;;4.93;;
291;SDS011;23311;48.776;9.162;2023-04-28T02:06:21;5.60;;;4.47;;
291;SDS011;23311;48.776;9.162;2023-04-28T02:08:49;5.03;;;4.17;;
291;SDS011;23311;48.776;9.162;2023-04-28T02:11:17;5.83;;;4.57;;
291;SDS011;23311;48.776;9.162;2023-04-28T02:13:47;3.83;;;3.67;;
291;SDS011;23311;48.776;9.162;2023-04-28T02:16:17;6.03;;;3.30;;
291;SDS011;23311;48.776;9.162;2023-04-28T02:18:45;3.90;;;3.33;;
291;SDS011;23311;48.776;9.162;2023-04-28T02:21:13;5.60;;;4.00;;
291;SDS011;23311;48.776;9.162;2023-04-28T02:23:41;3.17;;;2.80;;
291;SDS011;23311;48.776;9.162;2023-04-28T02:26:09;4.57;;;3.50;;
291;SDS011;23311;48.776;9.162;2023-04-28T02:28:37;3.43;;;3.23;;
291;SDS011;23311;48.776;9.162;2023-04-28T02:31:24;4.13;;;3.30;;
291;SDS011;23311;48.776;9.162;2023-04-28T02:33:52;5.47;;;3.10;;
291;SDS011;23311;48.776;9.162;2023-04-28T02:36:20;4.30;;;3.20;;
291;SDS011;23311;48.776;9.162;2023-04-28T02:38:48;3.57;;;3.37;;
291;SDS011;23311;48.776;9.162;2023-04-28T02:41:16;5.33;;;3.20;;
291;SDS011;23311;48.776;9.162;2023-04-28T02:43:44;5.70;;;3.63;;
291;SDS011;23311;48.776;9.162;2023-04-28T02:46:12;3.60;;;3.40;;
291;SDS011;23311;48.776;9.162;2023-04-28T02:48:41;6.13;;;3.30;;
291;SDS011;23311;48.776;9.162;2023-04-28T02:51:12;3.53;;;3.27;;
291;SDS011;23311;48.776;9.162;2023-04-28T02:53:40;3.97;;;3.67;;
291;SDS011;23311;48.776;9.162;2023-04-28T02:56:08;3.77;;;3.33;;
291;SDS011;23311;48.776;9.162;2023-04-28T02:58:36;4.67;;;2.90;;
291;SDS011;23311;48.776;9.162;2023-04-28T03:01:04;7.23;;;3.60;;
291;SDS011;23311;48.776;9.162;2023-04-28T03:03:32;3.73;;;3.10;;
291;SDS011;23311;48.776;9.162;2023-04-28T03:06:02;3.40;;;2.90;;
291;SDS011;23311;48.776;9.162;2023-04-28T03:08:30;5.17;;;3.63;;
291;SDS011;23311;48.776;9.162;2023-04-28T03:11:00;3.90;;;3.20;;
291;SDS011;23311;48.776;9.162;2023-04-28T03:13:28;4.97;;;3.97;;
291;SDS011;23311;48.776;9.162;2023-04-28T03:15:56;3.83;;;3.33;;
291;SDS011;23311;48.776;9.162;2023-04-28T03:18:24;3.60;;;3.17;;
291;SDS011;23311;48.776;9.162;2023-04-28T03:20:52;4.50;;;3.20;;
291;SDS011;23311;48.776;9.162;2023-04-28T03:23:22;3.57;;;2.90;;
291;SDS011;23311;48.776;9.162;2023-04-28T03:25:50;5.47;;;3.10;;
291;SDS011;23311;48.776;9.162;2023-04-28T03:28:18;5.47;;;3.33;;
291;SDS011;23311;48.776;9.162;2023-04-28T03:30:46;4.07;;;2.90;;
291;SDS011;23311;48.776;9.162;2023-04-28T03:33:14;3.67;;;3.43;;
291;SDS011;23311;48.776;9.162;2023-04-28T03:35:42;3.97;;;3.00;;
291;SDS011;23311;48.776;9.162;2023-04-28T03:38:10;4.67;;;3.33;;
291;SDS011;23311;48.776;9.162;2023-04-28T03:40:39;3.60;;;3.17;;
291;SDS011;23311;48.776;9.162;2023-04-28T03:43:07;3.93;;;3.37;;
291;SDS011;23311;48.776;9.162;2023-04-28T03:45:35;4.27;;;3.70;;
291;SDS011;23311;48.776;9.162;2023-04-28T03:48:03;5.23;;;4.07;;
291;SDS011;23311;48.776;9.162;2023-04-28T03:50:32;4.97;;;3.67;;
291;SDS011;23311;48.776;9.162;2023-04-28T03:53:00;6.50;;;4.93;;
291;SDS011;23311;48.776;9.162;2023-04-28T03:55:29;6.90;;;5.03;;
291;SDS011;23311;48.776;9.162;2023-04-28T03:57:58;6.17;;;4.07;;
291;SDS011;23311;48.776;9.162;2023-04-28T04:00:26;6.67;;;4.43;;
291;SDS011;23311;48.776;9.162;2023-04-28T04:02:54;12.60;;;5.90;;
291;SDS011;23311;48.776;9.162;2023-04-28T04:05:23;7.20;;;5.10;;
291;SDS011;23311;48.776;9.162;2023-04-28T04:07:51;5.43;;;5.13;;
291;SDS011;23311;48.776;9.162;2023-04-28T04:10:19;6.80;;;4.70;;
291;SDS011;23311;48.776;9.162;2023-04-28T04:12:47;6.07;;;4.80;;
291;SDS011;23311;48.776;9.162;2023-04-28T04:15:17;7.07;;;4.97;;
291;SDS011;23311;48.776;9.162;2023-04-28T04:17:45;5.97;;;4.77;;
291;SDS011;23311;48.776;9.162;2023-04-28T04:20:13;7.17;;;5.30;;
291;SDS011;23311;48.776;9.162;2023-04-28T04:22:41;5.40;;;4.53;;
291;SDS011;23311;48.776;9.162;2023-04-28T04:25:09;5.03;;;4.67;;
291;SDS011;23311;48.776;9.162;2023-04-28T04:27:38;6.40;;;5.20;;
291;SDS011;23311;48.776;9.162;2023-04-28T04:30:06;4.63;;;4.00;;
291;SDS011;23311;48.776;9.162;2023-04-28T04:32:36;6.80;;;4.43;;
291;SDS011;23311;48.776;9.162;2023-04-28T04:35:05;7.57;;;4.93;;
291;SDS011;23311;48.776;9.162;2023-04-28T04:37:33;4.97;;;4.23;;
291;SDS011;23311;48.776;9.162;2023-04-28T04:40:01;7.30;;;5.27;;
291;SDS011;23311;48.776;9.162;2023-04-28T04:42:29;6.17;;;5.00;;
291;SDS011;23311;48.776;9.162;2023-04-28T04:44:57;5.60;;;4.70;;
291;SDS011;23311;48.776;9.162;2023-04-28T04:47:25;4.70;;;4.33;;
291;SDS011;23311;48.776;9.162;2023-04-28T04:49:55;5.73;;;4.70;;
291;SDS011;23311;48.776;9.162;2023-04-28T04:52:23;5.33;;;5.07;;
291;SDS011;23311;48.776;9.162;2023-04-28T04:54:51;5.00;;;4.37;;
291;SDS011;23311;48.776;9.162;2023-04-28T04:57:21;4.53;;;3.90;;
291;SDS011;23311;48.776;9.162;2023-04-28T04:59:49;4.40;;;3.83;;
291;SDS011;23311;48.776;9.162;2023-04-28T05:02:17;3.20;;;3.00;;
291;SDS011;23311;48.776;9.162;2023-04-28T05:04:46;3.77;;;2.93;;
291;SDS011;23311;48.776;9.162;2023-04-28T05:07:15;4.37;;;3.33;;
291;SDS011;23311;48.776;9.162;2023-04-28T05:09:43;3.50;;;3.13;;
291;SDS011;23311;48.776;9.162;2023-04-28T05:12:11;3.80;;;3.23;;
291;SDS011;23311;48.776;9.162;2023-04-28T05:14:40;6.67;;;3.57;;
291;SDS011;23311;48.776;9.162;2023-04-28T05:17:08;4.10;;;3.77;;
291;SDS011;23311;48.776;9.162;2023-04-28T05:19:36;4.83;;;3.43;;
291;SDS011;23311;48.776;9.162;2023-04-28T05:22:04;5.40;;;4.30;;
291;SDS011;23311;48.776;9.162;2023-04-28T05:24:33;5.93;;;3.70;;
291;SDS011;23311;48.776;9.162;2023-04-28T05:27:01;3.70;;;3.50;;
291;SDS011;23311;48.776;9.162;2023-04-28T05:29:29;5.60;;;3.63;;
291;SDS011;23311;48.776;9.162;2023-04-28T05:31:57;4.57;;;3.87;;
291;SDS011;23311;48.776;9.162;2023-04-28T05:34:25;5.30;;;4.37;;
291;SDS011;23311;48.776;9.162;2023-04-28T05:36:53;4.83;;;4.53;;
291;SDS011;23311;48.776;9.162;2023-04-28T05:39:22;6.07;;;4.37;;
291;SDS011;23311;48.776;9.162;2023-04-28T05:41:51;9.60;;;5.00;;
291;SDS011;23311;48.776;9.162;2023-04-28T05:44:19;6.03;;;4.50;;
291;SDS011;23311;48.776;9.162;2023-04-28T05:46:47;4.70;;;4.27;;
291;SDS011;23311;48.776;9.162;2023-04-28T05:49:15;6.20;;;3.80;;
291;SDS011;23311;48.776;9.162;2023-04-28T05:51:43;6.60;;;4.33;;
291;SDS011;23311;48.776;9.162;2023-04-28T05:54:11;6.90;;;4.87;;
291;SDS011;23311;48.776;9.162;2023-04-28T05:56:39;5.10;;;4.83;;
291;SDS011;23311;48.776;9.162;2023-04-28T05:59:09;5.33;;;5.03;;
291;SDS011;23311;48.776;9.162;2023-04-28T06:01:37;5.13;;;4.23;;
291;SDS011;23311;48.776;9.162;2023-04-28T06:04:05;4.97;;;4.67;;
291;SDS011;23311;48.776;9.162;2023-04-28T06:06:33;5.47;;;4.77;;
291;SDS011;23311;48.776;9.162;2023-04-28T06:09:01;4.97;;;4.73;;
291;SDS011;23311;48.776;9.162;2023-04-28T06:11:30;6.13;;;4.40;;
291;SDS011;23311;48.776;9.162;2023-04-28T06:13:58;5.50;;;5.13;;
291;SDS011;23311;48.776;9.162;2023-04-28T06:16:27;6.93;;;5.23;;
291;SDS011;23311;48.776;9.162;2023-04-28T06:18:55;6.53;;;4.63;;
291;SDS011;23311;48.776;9.162;2023-04-28T06:21:23;5.37;;;4.13;;
291;SDS011;23311;48.776;9.162;2023-04-28T06:23:52;5.57;;;4.50;;
291;SDS011;23311;48.776;9.162;2023-04-28T06:26:21;4.97;;;4.60;;
291;SDS011;23311;48.776;9.162;2023-04-28T06:28:50;5.70;;;5.00;;
291;SDS011;23311;48.776;9.162;2023-04-28T06:31:18;5.47;;;5.20;;
291;SDS011;23311;48.776;9.162;2023-04-28T06:33:47;5.63;;;4.90;;
291;SDS011;23311;48.776;9.162;2023-04-28T06:36:15;5.50;;;4.27;;
291;SDS011;23311;48.776;9.162;2023-04-28T06:38:43;5.13;;;4.57;;
291;SDS011;23311;48.776;9.162;2023-04-28T06:41:12;4.60;;;4.13;;
291;SDS011;23311;48.776;9.162;2023-04-28T06:43:40;6.07;;;5.30;;
291;SDS011;23311;48.776;9.162;2023-04-28T06:46:08;4.97;;;4.67;;
291;SDS011;23311;48.776;9.162;2023-04-28T06:48:36;4.50;;;4.27;;
291;SDS011;23311;48.776;9.162;2023-04-28T06:51:06;5.10;;;4.77;;
291;SDS011;23311;48.776;9.162;2023-04-28T06:53:34;6.37;;;5.70;;
291;SDS011;23311;48.776;9.162;2023-04-28T06:56:02;5.73;;;4.43;;
291;SDS011;23311;48.776;9.162;2023-04-28T06:58:31;7.00;;;5.10;;
291;SDS011;23311;48.776;9.162;2023-04-28T07:00:59;8.87;;;4.93;;
291;SDS011;23311;48.776;9.162;2023-04-28T07:03:29;6.83;;;4.93;;
291;SDS011;23311;48.776;9.162;2023-04-28T07:05:57;6.50;;;4.90;;
291;SDS011;23311;48.776;9.162;2023-04-28T07:08:26;4.63;;;4.10;;
291;SDS011;23311;48.776;9.162;2023-04-28T07:10:56;5.80;;;4.63;;
291;SDS011;23311;48.776;9.162;2023-04-28T07:13:24;6.77;;;4.60;;
291;SDS011;23311;48.776;9.162;2023-04-28T07:15:52;4.80;;;4.50;;
291;SDS011;23311;48.776;9.162;2023-04-28T07:18:20;4.80;;;4.50;;
291;SDS011;23311;48.776;9.162;2023-04-28T07:20:48;7.30;;;4.87;;
291;SDS011;23311;48.776;9.162;2023-04-28T07:23:16;7.33;;;4.83;;
291;SDS011;23311;48.776;9.162;2023-04-28T07:25:45;6.87;;;4.50;;
291;SDS011;23311;48.776;9.162;2023-04-28T07:28:13;6.13;;;4.27;;
291;SDS011;23311;48.776;9.162;2023-04-28T07:30:42;5.73;;;4.83;;
291;SDS011;23311;48.776;9.162;2023-04-28T07:33:10;4.93;;;4.63;;
291;SDS011;23311;48.776;9.162;2023-04-28T07:35:38;5.37;;;5.13;;
291;SDS011;23311;48.776;9.162;2023-04-28T07:38:06;6.67;;;4.80;;
291;SDS011;23311;48.776;9.162;2023-04-28T07:40:35;6.20;;;4.60;;
291;SDS011;23311;48.776;9.162;2023-04-28T07:43:04;5.20;;;4.47;;
291;SDS011;23311;48.776;9.162;2023-04-28T07:45:32;5.00;;;4.20;;
291;SDS011;23311;48.776;9.162;2023-04-28T07:48:03;4.90;;;3.87;;
291;SDS011;23311;48.776;9.162;2023-04-28T07:50:31;5.10;;;4.03;;
291;SDS011;23311;48.776;9.162;2023-04-28T07:53:00;3.97;;;3.70;;
291;SDS011;23311;48.776;9.162;2023-04-28T07:55:28;4.90;;;4.67;;
291;SDS011;23311;48.776;9.162;2023-04-28T07:57:56;4.70;;;3.70;;
291;SDS011;23311;48.776;9.162;2023-04-28T08:00:26;3.87;;;3.67;;
291;SDS011;23311;48.776;9.162;2023-04-28T08:02:54;4.87;;;3.70;;
291;SDS011;23311;48.776;9.162;2023-04-28T08:05:23;5.57;;;4.30;;
291;SDS011;23311;48.776;9.162;2023-04-28T08:07:51;5.13;;;3.90;;
291;SDS011;23311;48.776;9.162;2023-04-28T08:10:20;5.87;;;4.53;;
291;SDS011;23311;48.776;9.162;2023-04-28T08:12:48;6.47;;;5.50;;
291;SDS011;23311;48.776;9.162;2023-04-28T08:15:16;5.10;;;4.03;;
291;SDS011;23311;48.776;9.162;2023-04-28T08:17:46;6.63;;;4.70;;
291;SDS011;23311;48.776;9.162;2023-04-28T08:20:14;6.90;;;4.60;;
291;SDS011;23311;48.776;9.162;2023-04-28T08:22:47;4.33;;;4.03;;
291;SDS011;23311;48.776;9.162;2023-04-28T08:25:15;4.93;;;4.63;;
291;SDS011;23311;48.776;9.162;2023-04-28T08:27:43;5.50;;;4.20;;
291;SDS011;23311;48.776;9.162;2023-04-28T08:30:11;5.03;;;4.33;;
291;SDS011;23311;48.776;9.162;2023-04-28T08:32:40;4.50;;;4.20;;
291;SDS011;23311;48.776;9.162;2023-04-28T08:35:10;5.90;;;4.60;;
291;SDS011;23311;48.776;9.162;2023-04-28T08:37:38;5.03;;;4.53;;
291;SDS011;23311;48.776;9.162;2023-04-28T08:40:06;8.03;;;7.10;;
291;SDS011;23311;48.776;9.162;2023-04-28T08:42:36;7.43;;;7.03;;
291;SDS011;23311;48.776;9.162;2023-04-28T08:45:05;7.80;;;7.20;;
291;SDS011;23311;48.776;9.162;2023-04-28T08:47:35;7.53;;;7.13;;
291;SDS011;23311;48.776;9.162;2023-04-28T08:50:05;8.50;;;8.00;;
291;SDS011;23311;48.776;9.162;2023-04-28T08:52:35;7.57;;;7.17;;
291;SDS011;23311;48.776;9.162;2023-04-28T08:55:04;8.97;;;7.83;;
291;SDS011;23311;48.776;9.162;2023-04-28T08:57:36;8.90;;;7.97;;
291;SDS011;23311;48.776;9.162;2023-04-28T09:00:07;8.97;;;7.90;;
291;SDS011;23311;48.776;9.162;2023-04-28T09:02:36;8.07;;;7.60;;
291;SDS011;23311;48.776;9.162;2023-04-28T09:05:08;8.27;;;7.37;;
291;SDS011;23311;48.776;9.162;2023-04-28T09:07:39;11.77;;;10.10;;
291;SDS011;23311;48.776;9.162;2023-04-28T09:10:17;12.23;;;9.87;;
291;SDS011;23311;48.776;9.162;2023-04-28T09:12:47;10.20;;;9.53;;
291;SDS011;23311;48.776;9.162;2023-04-28T09:15:24;11.10;;;10.23;;
291;SDS011;23311;48.776;9.162;2023-04-28T09:17:55;12.97;;;10.50;;
291;SDS011;23311;48.776;9.162;2023-04-28T09:20:25;11.43;;;10.83;;
291;SDS011;23311;48.776;9.162;2023-04-28T09:22:56;10.00;;;9.50;;
291;SDS011;23311;48.776;9.162;2023-04-28T09:25:39;8.80;;;8.27;;
291;SDS011;23311;48.776;9.162;2023-04-28T09:28:18;9.83;;;9.33;;
291;SDS011;23311;48.776;9.162;2023-04-28T09:30:47;9.97;;;9.47;;
291;SDS011;23311;48.776;9.162;2023-04-28T09:33:15;10.03;;;9.53;;
291;SDS011;23311;48.776;9.162;2023-04-28T09:35:44;10.70;;;8.90;;
291;SDS011;23311;48.776;9.162;2023-04-28T09:38:14;10.33;;;8.53;;
291;SDS011;23311;48.776;9.162;2023-04-28T09:40:52;9.80;;;8.03;;
291;SDS011;23311;48.776;9.162;2023-04-28T09:43:25;8.70;;;7.93;;
291;SDS011;23311;48.776;9.162;2023-04-28T09:45:55;9.40;;;7.97;;
291;SDS011;23311;48.776;9.162;2023-04-28T09:48:27;8.70;;;8.20;;
291;SDS011;23311;48.776;9.162;2023-04-28T09:50:57;8.23;;;7.83;;
291;SDS011;23311;48.776;9.162;2023-04-28T09:53:28;7.47;;;7.13;;
291;SDS011;23311;48.776;9.162;2023-04-28T09:55:57;9.27;;;7.20;;
291;SDS011;23311;48.776;9.162;2023-04-28T09:58:27;8.00;;;6.53;;
291;SDS011;23311;48.776;9.162;2023-04-28T10:00:57;7.63;;;6.80;;
291;SDS011;23311;48.776;9.162;2023-04-28T10:03:27;8.63;;;6.27;;
291;SDS011;23311;48.776;9.162;2023-04-28T10:05:56;6.73;;;5.83;;
291;SDS011;23311;48.776;9.162;2023-04-28T10:08:25;6.97;;;5.90;;
291;SDS011;23311;48.776;9.162;2023-04-28T10:10:55;5.93;;;5.63;;
291;SDS011;23311;48.776;9.162;2023-04-28T10:13:24;6.90;;;6.50;;
291;SDS011;23311;48.776;9.162;2023-04-28T10:15:52;6.13;;;4.90;;
291;SDS011;23311;48.776;9.162;2023-04-28T10:18:21;3.60;;;3.10;;
291;SDS011;23311;48.776;9.162;2023-04-28T10:20:52;3.40;;;3.20;;
291;SDS011;23311;48.776;9.162;2023-04-28T10:26:28;3.07;;;1.83;;
291;SDS011;23311;48.776;9.162;2023-04-28T10:29:21;5.77;;;2.20;;
291;SDS011;23311;48.776;9.162;2023-04-28T10:38:02;1.60;;;1.10;;
291;SDS011;23311;48.776;9.162;2023-04-28T10:40:32;1.97;;;1.47;;
291;SDS011;23311;48.776;9.162;2023-04-28T10:43:01;2.70;;;1.43;;
291;SDS011;23311;48.776;9.162;2023-04-28T10:48:53;2.40;;;1.17;;
291;SDS011;23311;48.776;9.162;2023-04-28T10:51:31;2.80;;;1.00;;
291;SDS011;23311;48.776;9.162;2023-04-28T10:54:13;1.20;;;0.77;;
291;SDS011;23311;48.776;9.162;2023-04-28T10:59:46;1.43;;;1.10;;
291;SDS011;23311;48.776;9.162;2023-04-28T11:05:17;2.60;;;0.70;;
291;SDS011;23311;48.776;9.162;2023-04-28T11:11:15;1.30;;;0.90;;
291;SDS011;23311;48.776;9.162;2023-04-28T11:13:46;3.40;;;0.83;;
291;SDS011;23311;48.776;9.162;2023-04-28T11:16:15;1.10;;;0.63;;
291;SDS011;23311;48.776;9.162;2023-04-28T11:18:48;1.53;;;0.63;;
291;SDS011;23311;48.776;9.162;2023-04-28T11:21:21;1.13;;;0.70;;
291;SDS011;23311;48.776;9.162;2023-04-28T11:23:50;1.60;;;0.70;;
291;SDS011;23311;48.776;9.162;2023-04-28T11:26:18;1.37;;;1.10;;
291;SDS011;23311;48.776;9.162;2023-04-28T11:28:51;1.00;;;0.50;;
291;SDS011;23311;48.776;9.162;2023-04-28T11:31:20;1.20;;;0.90;;
291;SDS011;23311;48.776;9.162;2023-04-28T11:33:57;1.20;;;0.57;;
291;SDS011;23311;48.776;9.162;2023-04-28T11:36:28;1.00;;;0.60;;
291;SDS011;23311;48.776;9.162;2023-04-28T11:39:00;2.50;;;1.10;;
291;SDS011;23311;48.776;9.162;2023-04-28T11:41:30;1.20;;;0.60;;
291;SDS011;23311;48.776;9.162;2023-04-28T11:44:01;0.93;;;0.60;;
291;SDS011;23311;48.776;9.162;2023-04-28T11:46:43;2.20;;;0.97;;
291;SDS011;23311;48.776;9.162;2023-04-28T11:49:12;1.50;;;0.70;;
291;SDS011;23311;48.776;9.162;2023-04-28T11:51:41;1.60;;;0.80;;
291;SDS011;23311;48.776;9.162;2023-04-28T11:54:11;1.37;;;0.83;;
291;SDS011;23311;48.776;9.162;2023-04-28T11:56:40;1.10;;;0.70;;
291;SDS011;23311;48.776;9.162;2023-04-28T11:59:11;0.97;;;0.53;;
291;SDS011;23311;48.776;9.162;2023-04-28T12:01:44;1.60;;;0.70;;
291;SDS011;23311;48.776;9.162;2023-04-28T12:04:13;1.57;;;0.60;;
291;SDS011;23311;48.776;9.162;2023-04-28T12:06:59;1.73;;;0.70;;
291;SDS011;23311;48.776;9.162;2023-04-28T12:09:28;1.07;;;0.60;;
291;SDS011;23311;48.776;9.162;2023-04-28T12:11:57;1.40;;;0.80;;
291;SDS011;23311;48.776;9.162;2023-04-28T12:14:29;1.30;;;0.60;;
291;SDS011;23311;48.776;9.162;2023-04-28T12:16:58;4.13;;;0.70;;
291;SDS011;23311;48.776;9.162;2023-04-28T12:19:26;1.60;;;0.70;;
291;SDS011;23311;48.776;9.162;2023-04-28T12:21:58;1.10;;;0.70;;
291;SDS011;23311;48.776;9.162;2023-04-28T12:24:28;2.20;;;0.50;;
291;SDS011;23311;48.776;9.162;2023-04-28T12:29:44;1.50;;;0.87;;
291;SDS011;23311;48.776;9.162;2023-04-28T12:32:15;1.60;;;0.63;;
291;SDS011;23311;48.776;9.162;2023-04-28T12:34:44;1.80;;;0.63;;
291;SDS011;23311;48.776;9.162;2023-04-28T12:37:12;1.50;;;0.73;;
291;SDS011;23311;48.776;9.162;2023-04-28T12:39:40;1.83;;;0.60;;
291;SDS011;23311;48.776;9.162;2023-04-28T12:42:09;2.00;;;0.90;;
291;SDS011;23311;48.776;9.162;2023-04-28T12:44:37;1.37;;;0.50;;
291;SDS011;23311;48.776;9.162;2023-04-28T12:47:07;1.27;;;0.90;;
291;SDS011;23311;48.776;9.162;2023-04-28T12:49:37;1.00;;;0.50;;
291;SDS011;23311;48.776;9.162;2023-04-28T12:52:05;1.23;;;0.80;;
291;SDS011;23311;48.776;9.162;2023-04-28T12:54:33;0.90;;;0.60;;
291;SDS011;23311;48.776;9.162;2023-04-28T12:57:01;1.10;;;0.70;;
291;SDS011;23311;48.776;9.162;2023-04-28T12:59:29;2.00;;;0.90;;
291;SDS011;23311;48.776;9.162;2023-04-28T13:01:58;2.27;;;1.17;;
291;SDS011;23311;48.776;9.162;2023-04-28T13:04:27;2.50;;;1.43;;
291;SDS011;23311;48.776;9.162;2023-04-28T13:06:56;1.87;;;1.20;;
291;SDS011;23311;48.776;9.162;2023-04-28T13:09:25;1.83;;;1.27;;
291;SDS011;23311;48.776;9.162;2023-04-28T13:11:53;2.60;;;1.17;;
291;SDS011;23311;48.776;9.162;2023-04-28T13:14:21;1.90;;;1.00;;
291;SDS011;23311;48.776;9.162;2023-04-28T13:16:49;1.60;;;1.30;;
291;SDS011;23311;48.776;9.162;2023-04-28T13:19:18;2.60;;;1.73;;
291;SDS011;23311;48.776;9.162;2023-04-28T13:21:48;1.33;;;1.20;;
291;SDS011;23311;48.776;9.162;2023-04-28T13:24:16;2.40;;;1.27;;
291;SDS011;23311;48.776;9.162;2023-04-28T13:26:44;1.40;;;1.10;;
291;SDS011;23311;48.776;9.162;2023-04-28T13:29:12;1.80;;;0.80;;
291;SDS011;23311;48.776;9.162;2023-04-28T13:31:40;1.47;;;0.80;;
291;SDS011;23311;48.776;9.162;2023-04-28T13:34:08;1.40;;;0.80;;
291;SDS011;23311;48.776;9.162;2023-04-28T13:36:41;1.40;;;0.97;;
291;SDS011;23311;48.776;9.162;2023-04-28T13:39:11;1.60;;;0.67;;
291;SDS011;23311;48.776;9.162;2023-04-28T13:41:40;1.40;;;0.73;;
291;SDS011;23311;48.776;9.162;2023-04-28T13:44:08;1.30;;;0.80;;
291;SDS011;23311;48.776;9.162;2023-04-28T13:46:36;1.70;;;1.40;;
291;SDS011;23311;48.776;9.162;2023-04-28T13:49:04;1.70;;;1.00;;
291;SDS011;23311;48.776;9.162;2023-04-28T13:51:32;2.40;;;1.70;;
291;SDS011;23311;48.776;9.162;2023-04-28T13:54:00;2.00;;;0.90;;
291;SDS011;23311;48.776;9.162;2023-04-28T13:56:31;2.10;;;0.97;;
291;SDS011;23311;48.776;9.162;2023-04-28T13:58:59;1.60;;;1.30;;
291;SDS011;23311;48.776;9.162;2023-04-28T14:01:27;1.53;;;0.87;;
291;SDS011;23311;48.776;9.162;2023-04-28T14:03:55;2.60;;;1.00;;
291;SDS011;23311;48.776;9.162;2023-04-28T14:06:24;1.50;;;1.00;;
291;SDS011;23311;48.776;9.162;2023-04-28T14:08:54;1.50;;;1.00;;
291;SDS011;23311;48.776;9.162;2023-04-28T14:11:22;2.23;;;1.60;;
291;SDS011;23311;48.776;9.162;2023-04-28T14:13:51;1.90;;;1.30;;
291;SDS011;23311;48.776;9.162;2023-04-28T14:16:19;1.77;;;1.17;;
291;SDS011;23311;48.776;9.162;2023-04-28T14:18:48;2.50;;;1.90;;
291;SDS011;23311;48.776;9.162;2023-04-28T14:21:16;2.60;;;1.43;;
291;SDS011;23311;48.776;9.162;2023-04-28T14:23:44;3.87;;;2.07;;
291;SDS011;23311;48.776;9.162;2023-04-28T14:26:12;2.13;;;1.73;;
291;SDS011;23311;48.776;9.162;2023-04-28T14:28:40;1.93;;;1.43;;
291;SDS011;23311;48.776;9.162;2023-04-28T14:31:09;3.00;;;1.93;;
291;SDS011;23311;48.776;9.162;2023-04-28T14:33:38;3.73;;;1.67;;
291;SDS011;23311;48.776;9.162;2023-04-28T14:36:06;2.23;;;1.60;;
291;SDS011;23311;48.776;9.162;2023-04-28T14:38:34;2.87;;;1.80;;
291;SDS011;23311;48.776;9.162;2023-04-28T14:41:05;2.37;;;1.50;;
291;SDS011;23311;48.776;9.162;2023-04-28T14:43:33;3.00;;;1.93;;
291;SDS011;23311;48.776;9.162;2023-04-28T14:46:01;4.00;;;2.07;;
291;SDS011;23311;48.776;9.162;2023-04-28T14:48:31;2.30;;;2.10;;
291;SDS011;23311;48.776;9.162;2023-04-28T14:51:00;6.37;;;2.80;;
291;SDS011;23311;48.776;9.162;2023-04-28T14:53:28;2.80;;;2.27;;
291;SDS011;23311;48.776;9.162;2023-04-28T14:55:57;2.27;;;1.77;;
291;SDS011;23311;48.776;9.162;2023-04-28T14:58:42;2.53;;;1.20;;
291;SDS011;23311;48.776;9.162;2023-04-28T15:01:11;2.10;;;1.00;;
291;SDS011;23311;48.776;9.162;2023-04-28T15:03:41;1.70;;;0.97;;
291;SDS011;23311;48.776;9.162;2023-04-28T15:06:10;1.70;;;0.87;;
291;SDS011;23311;48.776;9.162;2023-04-28T15:08:38;1.40;;;0.80;;
291;SDS011;23311;48.776;9.162;2023-04-28T15:11:06;2.10;;;0.90;;
291;SDS011;23311;48.776;9.162;2023-04-28T15:13:34;1.73;;;0.63;;
291;SDS011;23311;48.776;9.162;2023-04-28T15:16:03;1.70;;;0.70;;
291;SDS011;23311;48.776;9.162;2023-04-28T15:18:32;1.30;;;0.70;;
291;SDS011;23311;48.776;9.162;2023-04-28T15:21:02;3.50;;;1.17;;
291;SDS011;23311;48.776;9.162;2023-04-28T15:23:30;1.20;;;0.60;;
291;SDS011;23311;48.776;9.162;2023-04-28T15:25:58;1.20;;;0.53;;
291;SDS011;23311;48.776;9.162;2023-04-28T15:28:26;1.00;;;0.43;;
291;SDS011;23311;48.776;9.162;2023-04-28T15:30:54;1.20;;;0.67;;
291;SDS011;23311;48.776;9.162;2023-04-28T15:33:23;1.70;;;0.70;;
291;SDS011;23311;48.776;9.162;2023-04-28T15:35:50;1.30;;;0.73;;
291;SDS011;23311;48.776;9.162;2023-04-28T15:38:20;1.37;;;0.70;;
291;SDS011;23311;48.776;9.162;2023-04-28T15:40:48;1.20;;;0.70;;
291;SDS011;23311;48.776;9.162;2023-04-28T15:43:16;1.47;;;0.80;;
291;SDS011;23311;48.776;9.162;2023-04-28T15:45:44;1.43;;;0.70;;
291;SDS011;23311;48.776;9.162;2023-04-28T15:48:12;1.73;;;1.00;;
291;SDS011;23311;48.776;9.162;2023-04-28T15:50:41;2.60;;;1.23;;